createdAt,value
2018-08-09T06:32:51.059Z,2108.00
2018-08-09T06:33:51.028Z,2184.00
2018-08-09T06:34:51.618Z,2148.00
2018-08-09T06:35:50.994Z,2052.00
2018-08-09T06:36:51.298Z,2028.00
2018-08-09T06:37:51.775Z,2012.00
2018-08-09T06:38:50.997Z,2004.00
2018-08-09T06:39:51.228Z,2044.00
2018-08-09T06:40:51.598Z,2036.00
2018-08-09T06:41:50.988Z,2016.00
2018-08-09T06:42:56.375Z,2012.00
2018-08-09T06:43:51.016Z,2076.00
2018-08-09T06:44:50.943Z,2204.00
2018-08-09T06:45:50.926Z,2316.00
2018-08-09T06:46:50.953Z,2324.00
2018-08-09T07:11:42.976Z,1828.00
2018-08-09T07:12:42.908Z,1696.00
2018-08-09T07:14:05.260Z,1740.00
2018-08-09T07:14:44.807Z,1828.00
2018-08-09T07:15:42.878Z,1880.00
2018-08-09T07:16:43.798Z,1852.00
2018-08-09T07:17:43.880Z,1792.00
2018-08-09T07:18:42.857Z,1596.00
2018-08-09T07:19:42.985Z,1588.00
2018-08-09T07:20:43.334Z,1528.00
2018-08-09T07:26:07.199Z,1500.00
2018-08-09T07:26:42.228Z,1676.00
2018-08-09T07:27:39.777Z,1776.00
2018-08-09T07:28:42.818Z,1896.00
2018-08-09T07:29:39.346Z,2216.00
2018-08-09T07:30:39.326Z,2460.00
2018-08-09T07:31:39.295Z,2156.00
2018-08-09T07:32:39.275Z,2052.00
2018-08-09T07:33:39.272Z,1856.00
2018-08-09T07:34:39.304Z,1592.00
2018-08-09T07:35:39.298Z,1424.00
2018-08-09T07:36:39.289Z,1324.00
2018-08-09T07:37:39.257Z,1176.00
2018-08-09T07:38:39.265Z,1036.00
2018-08-09T07:39:39.420Z,932.00
2018-08-09T07:40:39.223Z,856.00
2018-08-09T07:41:39.215Z,840.00
2018-08-09T07:42:39.235Z,832.00
2018-08-09T07:43:39.271Z,828.00
2018-08-09T07:44:39.278Z,840.00
2018-08-09T07:45:39.196Z,876.00
2018-08-09T07:46:39.187Z,888.00
2018-08-09T07:47:39.185Z,908.00
2018-08-09T07:48:39.188Z,980.00
2018-08-09T07:49:39.208Z,1012.00
2018-08-09T07:50:39.161Z,932.00
2018-08-09T07:51:39.140Z,880.00
2018-08-09T07:52:39.141Z,900.00
2018-08-09T07:53:39.130Z,1036.00
2018-08-09T07:54:39.180Z,1108.00
2018-08-09T07:55:40.632Z,1100.00
2018-08-09T07:56:39.121Z,1176.00
2018-08-09T07:57:39.125Z,1284.00
2018-08-09T07:58:39.114Z,1228.00
2018-08-09T07:59:39.141Z,1188.00
2018-08-09T08:00:39.100Z,1248.00
2018-08-09T08:01:39.122Z,1420.00
2018-08-09T08:02:39.080Z,1436.00
2018-08-09T08:03:39.072Z,1344.00
2018-08-09T08:04:39.096Z,1276.00
2018-08-09T08:05:39.204Z,1232.00
2018-08-09T08:06:39.066Z,1200.00
2018-08-09T08:07:39.049Z,1164.00
2018-08-09T08:08:39.160Z,1148.00
2018-08-09T08:09:39.053Z,1128.00
2018-08-09T08:10:39.027Z,1164.00
2018-08-09T08:11:39.055Z,1244.00
2018-08-09T08:12:39.010Z,1360.00
2018-08-09T08:13:39.010Z,1456.00
2018-08-09T08:14:39.062Z,1532.00
2018-08-09T08:15:38.988Z,1556.00
2018-08-09T08:16:39.015Z,1488.00
2018-08-09T08:17:38.978Z,1396.00
2018-08-09T08:18:38.984Z,1304.00
2018-08-09T08:19:39.124Z,1352.00
2018-08-09T08:20:39.083Z,1408.00
2018-08-09T08:21:39.383Z,1404.00
2018-08-09T08:22:43.655Z,1344.00
2018-08-09T08:23:38.943Z,1272.00
2018-08-09T08:24:40.665Z,1224.00
2018-08-09T08:25:38.951Z,1168.00
2018-08-09T08:26:39.018Z,1148.00
2018-08-09T08:27:38.969Z,1160.00
2018-08-09T08:28:38.913Z,1184.00
2018-08-09T08:29:42.476Z,1192.00
2018-08-09T08:30:38.925Z,1192.00
2018-08-09T08:31:38.893Z,1188.00
2018-08-09T08:32:38.879Z,1252.00
2018-08-09T08:33:38.903Z,1424.00
2018-08-09T08:34:38.926Z,1608.00
2018-08-09T08:35:38.880Z,1736.00
2018-08-09T08:36:38.857Z,1848.00
2018-08-09T08:37:38.859Z,1960.00
2018-08-09T08:38:38.863Z,1784.00
2018-08-09T08:39:38.880Z,1684.00
2018-08-09T08:40:38.884Z,1544.00
2018-08-09T08:41:38.934Z,1564.00
2018-08-09T08:42:38.826Z,1584.00
2018-08-09T08:43:38.821Z,1636.00
2018-08-09T08:44:38.810Z,1728.00
2018-08-09T09:14:06.656Z,1872.00
2018-08-09T09:15:05.018Z,1876.00
2018-08-09T09:28:32.287Z,2388.00
2018-08-09T09:29:38.200Z,2216.00
2018-08-09T09:30:23.468Z,2108.00
2018-08-09T09:31:23.075Z,2160.00
2018-08-09T09:32:22.939Z,1896.00
2018-08-09T09:33:24.309Z,1584.00
2018-08-09T09:34:22.796Z,1372.00
2018-08-09T09:35:22.791Z,1208.00
2018-08-09T09:36:22.793Z,1108.00
2018-08-09T09:37:22.775Z,1256.00
2018-08-09T09:38:22.759Z,1296.00
2018-08-09T09:39:22.770Z,1408.00
2018-08-09T09:40:22.849Z,1476.00
2018-08-09T09:41:22.790Z,1484.00
2018-08-09T09:42:22.734Z,1496.00
2018-08-09T09:43:22.736Z,1584.00
2018-08-09T09:44:22.780Z,1544.00
2018-08-09T09:45:22.718Z,1400.00
2018-08-09T09:46:38.726Z,1220.00
2018-08-09T09:47:22.773Z,1272.00
2018-08-09T09:48:37.903Z,1532.00
2018-08-09T09:49:29.613Z,1652.00
2018-08-09T09:50:26.113Z,1696.00
2018-08-09T09:51:22.674Z,1780.00
2018-08-09T09:52:22.682Z,1908.00
2018-08-09T09:53:33.879Z,1972.00
2018-08-09T09:54:22.807Z,2052.00
2018-08-09T09:55:22.663Z,2340.00
2018-08-09T09:56:22.648Z,2860.00
2018-08-09T09:57:22.645Z,3192.00
2018-08-09T09:58:22.641Z,3304.00
2018-08-09T10:02:07.587Z,3028.00
2018-08-09T10:02:59.873Z,2704.00
2018-08-09T10:03:59.847Z,2424.00
2018-08-09T10:04:59.735Z,2272.00
2018-08-09T10:05:59.784Z,2324.00
2018-08-09T10:06:59.746Z,2036.00
2018-08-09T10:07:59.712Z,1740.00
2018-08-09T10:08:59.710Z,1572.00
2018-08-09T10:09:59.708Z,1344.00
2018-08-09T10:10:59.702Z,1316.00
2018-08-09T10:11:59.697Z,1248.00
2018-08-09T10:12:59.694Z,968.00
2018-08-09T10:13:59.691Z,856.00
2018-08-09T10:14:59.792Z,808.00
2018-08-09T10:15:59.690Z,808.00
2018-08-09T10:16:59.681Z,868.00
2018-08-09T10:18:01.610Z,1116.00
2018-08-09T10:21:39.158Z,1256.00
2018-08-09T10:22:39.191Z,1324.00
2018-08-09T10:23:39.100Z,1416.00
2018-08-09T10:24:40.245Z,1652.00
2018-08-09T10:25:39.103Z,1872.00
2018-08-09T10:26:39.103Z,2132.00
2018-08-09T10:27:39.075Z,2416.00
2018-08-09T10:28:39.115Z,2708.00
2018-08-09T10:29:39.069Z,2676.00
2018-08-09T10:30:39.058Z,2584.00
2018-08-09T10:31:39.060Z,2568.00
2018-08-09T10:32:39.061Z,2612.00
2018-08-09T10:33:39.080Z,2744.00
2018-08-09T10:34:39.025Z,2212.00
2018-08-09T10:35:39.040Z,1976.00
2018-08-09T10:36:39.023Z,1952.00
2018-08-09T10:37:39.007Z,1720.00
2018-08-09T10:38:39.100Z,1664.00
2018-08-09T10:39:39.003Z,1920.00
2018-08-09T10:40:39.005Z,2380.00
2018-08-09T10:41:38.990Z,2780.00
2018-08-09T10:42:39.034Z,3076.00
2018-08-09T10:43:38.969Z,3692.00
2018-08-09T10:44:38.977Z,4448.00
2018-08-09T10:45:38.995Z,7448.00
2018-08-09T10:46:38.963Z,8216.00
2018-08-09T10:47:38.948Z,4996.00
2018-08-09T10:48:38.955Z,9056.00
2018-08-09T10:49:38.952Z,9680.00
2018-08-09T10:50:38.970Z,4120.00
2018-08-09T10:51:38.949Z,5288.00
2018-08-09T10:52:38.917Z,7556.00
2018-08-09T10:53:38.914Z,6448.00
2018-08-09T10:54:38.902Z,8340.00
2018-08-09T10:55:38.982Z,24064.00
2018-08-09T10:56:38.899Z,25536.00
2018-08-09T10:57:39.593Z,14368.00
2018-08-09T10:59:00.199Z,19168.00
2018-08-09T10:59:38.883Z,41856.00
2018-08-09T11:00:49.579Z,15200.00
2018-08-09T11:01:38.924Z,11992.00
2018-08-09T11:02:38.949Z,12100.00
2018-08-09T11:03:40.202Z,7204.00
2018-08-09T11:04:41.581Z,6776.00
2018-08-09T11:05:38.856Z,6232.00
2018-08-09T11:06:38.861Z,9408.00
2018-08-09T11:07:38.848Z,9292.00
2018-08-09T11:08:39.143Z,10380.00
2018-08-09T11:09:39.044Z,22688.00
2018-08-09T11:10:38.909Z,19296.00
2018-08-09T11:11:38.830Z,13120.00
2018-08-09T11:12:39.040Z,8700.00
2018-08-09T11:13:39.250Z,9176.00
2018-08-09T11:14:39.606Z,8548.00
2018-08-09T11:23:45.129Z,5436.00
2018-08-09T11:29:08.685Z,41472.00
2018-08-09T11:30:10.257Z,15616.00
2018-08-09T11:31:09.067Z,18912.00
2018-08-09T11:32:07.888Z,17536.00
2018-08-09T11:33:11.374Z,6424.00
2018-08-09T11:34:07.793Z,8176.00
2018-08-09T11:35:07.779Z,9932.00
2018-08-09T11:36:07.753Z,7656.00
2018-08-09T11:37:07.793Z,6084.00
2018-08-09T11:38:07.743Z,5624.00
2018-08-09T11:39:14.055Z,7256.00
2018-08-09T11:40:07.740Z,10024.00
2018-08-09T11:41:07.727Z,6260.00
2018-08-09T11:42:07.771Z,20128.00
2018-08-09T11:43:07.768Z,21056.00
2018-08-09T11:44:07.720Z,8600.00
2018-08-09T11:45:07.841Z,7288.00
2018-08-09T11:46:07.712Z,12168.00
2018-08-09T11:47:07.747Z,12588.00
2018-08-09T11:48:07.707Z,6784.00
2018-08-09T11:49:07.795Z,4296.00
2018-08-09T11:50:07.706Z,9840.00
2018-08-09T11:51:07.702Z,5416.00
2018-08-09T11:52:07.690Z,6992.00
2018-08-09T11:53:07.824Z,5012.00
2018-08-09T11:54:07.692Z,4848.00
2018-08-09T11:55:07.865Z,3384.00
2018-08-09T11:56:08.555Z,3944.00
2018-08-09T11:57:07.697Z,3160.00
2018-08-09T11:58:07.695Z,3768.00
2018-08-09T11:59:07.675Z,4600.00
2018-08-09T12:00:07.688Z,4624.00
2018-08-09T12:01:07.669Z,3440.00
2018-08-09T12:02:07.683Z,4028.00
2018-08-09T12:03:07.705Z,3332.00
2018-08-09T12:04:07.663Z,2588.00
2018-08-09T12:05:07.643Z,2196.00
2018-08-09T12:06:07.662Z,2480.00
2018-08-09T12:07:07.687Z,2556.00
2018-08-09T12:08:07.910Z,2728.00
2018-08-09T12:09:07.641Z,2864.00
2018-08-09T12:10:08.335Z,3136.00
2018-08-09T12:11:07.769Z,4028.00
2018-08-09T12:12:07.640Z,4224.00
2018-08-09T12:13:07.639Z,4624.00
2018-08-09T12:14:07.677Z,4764.00
2018-08-09T12:15:07.652Z,4364.00
2018-08-09T12:16:07.624Z,6860.00
2018-08-09T12:17:07.605Z,5696.00
2018-08-09T12:18:08.014Z,5400.00
2018-08-09T12:19:14.373Z,5100.00
2018-08-09T12:20:07.590Z,5116.00
2018-08-09T12:21:07.612Z,4828.00
2018-08-09T12:22:07.597Z,11008.00
2018-08-09T12:23:07.586Z,5692.00
2018-08-09T12:24:32.861Z,6248.00
2018-08-09T12:25:07.767Z,6108.00
2018-08-09T12:26:08.427Z,6228.00
2018-08-09T12:27:08.734Z,5244.00
2018-08-09T12:28:07.559Z,5068.00
2018-08-09T12:29:07.609Z,5224.00
2018-08-09T12:30:07.575Z,5336.00
2018-08-09T12:31:07.555Z,6060.00
2018-08-09T12:32:07.542Z,5472.00
2018-08-09T12:33:07.638Z,4888.00
2018-08-09T12:34:07.594Z,5848.00
2018-08-09T12:35:07.544Z,4704.00
2018-08-09T12:36:07.542Z,5880.00
2018-08-09T12:37:07.947Z,5676.00
2018-08-09T12:38:07.551Z,5712.00
2018-08-09T12:39:07.536Z,4996.00
2018-08-09T12:40:07.541Z,8932.00
2018-08-09T12:41:07.521Z,12768.00
2018-08-09T12:42:07.523Z,4012.00
2018-08-09T12:43:07.540Z,4584.00
2018-08-09T12:44:07.513Z,4504.00
2018-08-09T12:45:07.547Z,4560.00
2018-08-09T12:46:07.545Z,4440.00
2018-08-09T12:47:07.499Z,4644.00
2018-08-09T12:48:07.518Z,4332.00
2018-08-09T12:49:07.503Z,4352.00
2018-08-09T12:50:07.492Z,6144.00
2018-08-09T12:51:07.524Z,4320.00
2018-08-09T12:52:07.485Z,4264.00
2018-08-09T12:53:07.512Z,4960.00
2018-08-09T12:54:07.488Z,3512.00
2018-08-09T12:55:07.519Z,4076.00
2018-08-09T12:56:07.488Z,3236.00
2018-08-09T12:57:07.510Z,3896.00
2018-08-09T12:58:07.805Z,4740.00
2018-08-09T12:59:07.476Z,4676.00
2018-08-09T13:00:07.612Z,5320.00
2018-08-09T13:01:07.699Z,3676.00
2018-08-09T13:02:07.502Z,4808.00
2018-08-09T13:03:07.473Z,4960.00
2018-08-09T13:04:07.453Z,4636.00
2018-08-09T13:05:07.473Z,4416.00
2018-08-09T13:06:07.464Z,4324.00
2018-08-09T13:07:07.589Z,4288.00
2018-08-09T13:08:07.503Z,4456.00
2018-08-09T13:09:07.729Z,4924.00
2018-08-09T13:10:07.506Z,4760.00
2018-08-09T13:11:08.515Z,4604.00
2018-08-09T13:12:07.451Z,4060.00
2018-08-09T13:13:07.442Z,3792.00
2018-08-09T13:14:07.464Z,3836.00
2018-08-09T13:15:07.444Z,3932.00
2018-08-09T13:16:07.478Z,4724.00
2018-08-09T13:17:09.946Z,5152.00
2018-08-09T13:18:07.983Z,5028.00
2018-08-09T13:19:07.422Z,4664.00
2018-08-09T13:20:08.377Z,4564.00
2018-08-09T13:21:07.975Z,4752.00
2018-08-09T13:22:07.447Z,4636.00
2018-08-09T13:23:07.429Z,4736.00
2018-08-09T13:24:07.408Z,6124.00
2018-08-09T13:25:07.439Z,5328.00
2018-08-09T13:26:07.404Z,4676.00
2018-08-09T13:27:07.482Z,4608.00
2018-08-09T13:28:07.572Z,4732.00
2018-08-09T13:29:07.402Z,4472.00
2018-08-09T13:30:10.145Z,4064.00
2018-08-09T13:31:08.945Z,3596.00
2018-08-09T13:32:07.695Z,3376.00
2018-08-09T13:33:07.615Z,3332.00
2018-08-09T13:34:07.391Z,3224.00
2018-08-09T13:35:07.424Z,3120.00
2018-08-09T13:36:07.381Z,3084.00
2018-08-09T13:37:07.433Z,3292.00
2018-08-09T13:38:08.876Z,3468.00
2018-08-09T13:39:07.367Z,3400.00
2018-08-09T13:40:07.436Z,3444.00
2018-08-09T13:41:07.376Z,3476.00
2018-08-09T13:42:07.384Z,3548.00
2018-08-09T13:43:07.378Z,3632.00
2018-08-09T13:44:07.356Z,3720.00
2018-08-09T13:45:07.365Z,3612.00
2018-08-09T13:46:07.401Z,3528.00
2018-08-09T13:47:07.355Z,3372.00
2018-08-09T13:48:07.350Z,3260.00
2018-08-09T13:49:07.370Z,3180.00
2018-08-09T13:50:07.383Z,3060.00
2018-08-09T13:51:07.367Z,2944.00
2018-08-09T13:52:07.334Z,2884.00
2018-08-09T13:53:07.328Z,2836.00
2018-08-09T13:54:07.338Z,2788.00
2018-08-09T13:55:07.375Z,2796.00
2018-08-09T13:56:07.929Z,2848.00
2018-08-09T13:57:08.652Z,2848.00
2018-08-09T13:58:07.309Z,2792.00
2018-08-09T13:59:07.315Z,2736.00
2018-08-09T14:00:07.330Z,2708.00
2018-08-09T14:01:07.321Z,2740.00
2018-08-09T14:02:07.984Z,2908.00
2018-08-09T14:03:07.307Z,2908.00
2018-08-09T14:04:07.384Z,3036.00
2018-08-09T14:05:07.429Z,3184.00
2018-08-09T14:06:07.306Z,3312.00
2018-08-09T14:07:07.314Z,3308.00
2018-08-09T14:08:07.327Z,3212.00
2018-08-09T14:09:07.286Z,3176.00
2018-08-09T14:10:07.285Z,3080.00
2018-08-09T14:11:07.575Z,3012.00
2018-08-09T14:12:08.539Z,2800.00
2018-08-09T14:13:07.296Z,2640.00
2018-08-09T14:14:07.950Z,2652.00
2018-08-09T14:15:07.286Z,2476.00
2018-08-09T14:16:07.323Z,2424.00
2018-08-09T14:17:07.322Z,2384.00
2018-08-09T14:18:07.308Z,2356.00
2018-08-09T14:19:13.985Z,2344.00
2018-08-09T14:20:08.408Z,2340.00
2018-08-09T14:21:07.270Z,2280.00
2018-08-09T14:22:09.998Z,2228.00
2018-08-09T14:23:07.267Z,2160.00
2018-08-09T14:24:07.983Z,2124.00
2018-08-09T14:25:07.325Z,2124.00
2018-08-09T14:26:07.255Z,2040.00
2018-08-09T14:27:07.256Z,1996.00
2018-08-09T14:28:07.275Z,1912.00
2018-08-09T14:29:07.242Z,1876.00
2018-08-09T14:30:07.412Z,1820.00
2018-08-09T14:31:07.245Z,1776.00
2018-08-09T14:32:07.250Z,1744.00
2018-08-09T14:33:07.274Z,1676.00
2018-08-09T14:34:07.240Z,1660.00
2018-08-09T14:35:07.231Z,1588.00
2018-08-09T14:36:07.227Z,1488.00
2018-08-09T14:37:07.238Z,1376.00
2018-08-09T14:38:07.262Z,1256.00
2018-08-09T14:39:07.228Z,1164.00
2018-08-09T14:40:07.244Z,1112.00
2018-08-09T14:41:07.329Z,1048.00
2018-08-09T14:42:07.216Z,984.00
2018-08-09T14:43:07.266Z,892.00
2018-08-09T14:44:07.221Z,832.00
2018-08-09T14:45:07.201Z,752.00
2018-08-09T14:46:07.248Z,672.00
2018-08-09T14:47:07.199Z,580.00
2018-08-09T14:48:07.205Z,472.00
2018-08-09T14:49:07.246Z,412.00
2018-08-09T14:50:07.192Z,388.00
2018-08-09T14:51:10.433Z,352.00
2018-08-09T14:52:07.195Z,352.00
2018-08-09T14:53:07.185Z,296.00
2018-08-09T14:54:07.175Z,204.00
2018-08-09T14:55:07.225Z,164.00
2018-08-09T14:56:07.180Z,144.00
2018-08-09T14:57:07.175Z,124.00
2018-08-09T14:58:08.019Z,108.00
2018-08-09T14:59:07.162Z,100.00
2018-08-09T15:00:07.197Z,128.00
2018-08-09T15:01:07.154Z,76.00
2018-08-09T15:02:09.028Z,64.00
2018-08-09T15:05:29.720Z,28.00
2018-08-09T15:06:29.535Z,16.00
2018-08-09T15:07:29.259Z,12.00
2018-08-09T15:08:29.348Z,16.00
2018-08-09T15:09:29.280Z,12.00
2018-08-09T15:10:29.233Z,8.00
2018-08-09T15:11:29.977Z,8.00
2018-08-09T15:12:29.234Z,16.00
2018-08-09T15:13:29.233Z,16.00
2018-08-09T15:14:29.261Z,28.00
2018-08-09T15:15:29.232Z,28.00
2018-08-09T15:16:29.216Z,20.00
2018-08-09T15:17:29.207Z,48.00
2018-08-09T15:18:29.229Z,76.00
2018-08-09T15:19:29.220Z,104.00
2018-08-09T15:20:29.211Z,120.00
2018-08-09T15:21:29.188Z,148.00
2018-08-09T15:22:29.248Z,200.00
2018-08-09T15:23:29.191Z,236.00
2018-08-09T15:24:29.218Z,256.00
2018-08-09T15:25:29.292Z,256.00
2018-08-09T15:26:29.391Z,264.00
2018-08-09T15:27:29.157Z,272.00
2018-08-09T15:28:29.182Z,276.00
2018-08-09T15:29:29.146Z,272.00
2018-08-09T15:30:29.145Z,292.00
2018-08-09T15:31:29.142Z,320.00
2018-08-09T15:32:29.125Z,336.00
2018-08-09T15:33:29.140Z,360.00
2018-08-09T15:34:29.115Z,392.00
2018-08-09T15:35:29.126Z,460.00
2018-08-09T15:36:29.096Z,492.00
2018-08-09T15:37:29.098Z,544.00
2018-08-09T15:38:29.094Z,604.00
2018-08-09T15:39:29.099Z,676.00
2018-08-09T15:40:29.105Z,760.00
2018-08-09T15:41:29.067Z,896.00
2018-08-09T15:42:29.101Z,1068.00
2018-08-09T15:43:29.063Z,1264.00
2018-08-09T15:44:29.071Z,1412.00
2018-08-09T15:45:29.047Z,1556.00
2018-08-09T15:46:29.036Z,1752.00
2018-08-09T15:47:29.142Z,2112.00
2018-08-09T15:48:29.008Z,2628.00
2018-08-09T15:49:29.019Z,3128.00
2018-08-09T15:50:29.040Z,3380.00
2018-08-09T15:51:29.934Z,3448.00
2018-08-09T15:52:29.929Z,3532.00
2018-08-09T15:53:28.976Z,3564.00
2018-08-09T15:54:28.997Z,3680.00
2018-08-09T15:55:29.991Z,3440.00
2018-08-09T15:56:28.956Z,3508.00
2018-08-09T15:57:28.950Z,3164.00
2018-08-09T15:58:28.941Z,2852.00
2018-08-09T15:59:28.972Z,2564.00
2018-08-09T16:00:28.945Z,2272.00
2018-08-09T16:01:28.914Z,2080.00
2018-08-09T16:02:28.989Z,1908.00
2018-08-09T16:03:28.907Z,1708.00
2018-08-09T16:04:28.915Z,1520.00
2018-08-09T16:05:28.899Z,1416.00
2018-08-09T16:06:28.881Z,1292.00
2018-08-09T16:07:28.886Z,1220.00
2018-08-09T16:08:28.871Z,1184.00
2018-08-09T16:09:29.843Z,1052.00
2018-08-09T16:10:28.873Z,948.00
2018-08-09T16:11:29.446Z,864.00
2018-08-09T16:12:28.853Z,796.00
2018-08-09T16:13:28.834Z,756.00
2018-08-09T16:14:28.873Z,728.00
2018-08-09T16:15:28.868Z,716.00
2018-08-09T16:16:28.936Z,728.00
2018-08-09T16:17:28.807Z,756.00
2018-08-09T16:18:28.890Z,816.00
2018-08-09T16:19:28.798Z,884.00
2018-08-09T16:20:28.833Z,920.00
2018-08-09T16:21:28.923Z,948.00
2018-08-09T16:22:28.819Z,964.00
2018-08-09T16:23:28.786Z,964.00
2018-08-09T16:24:28.756Z,944.00
2018-08-09T16:25:28.755Z,944.00
2018-08-09T16:36:55.441Z,1608.00
2018-08-09T16:37:55.533Z,1624.00
2018-08-09T16:38:55.333Z,1624.00
2018-08-09T16:39:55.310Z,1528.00
2018-08-09T16:40:55.281Z,1368.00
2018-08-09T16:41:55.282Z,1340.00
2018-08-09T16:42:55.257Z,1376.00
2018-08-09T16:43:55.294Z,1400.00
2018-08-09T16:44:55.257Z,2184.00
2018-08-09T16:45:55.243Z,2048.00
2018-08-09T16:46:55.275Z,1680.00
2018-08-09T16:47:55.226Z,1588.00
2018-08-09T16:48:55.380Z,1552.00
2018-08-09T16:49:55.213Z,1916.00
2018-08-09T16:50:55.369Z,1928.00
2018-08-09T16:51:55.205Z,1480.00
2018-08-09T16:52:55.243Z,1456.00
2018-08-09T16:53:55.304Z,1596.00
2018-08-09T16:54:55.186Z,1608.00
2018-08-09T16:55:56.253Z,1676.00
2018-08-09T16:56:55.209Z,1688.00
2018-08-09T16:57:55.169Z,1624.00
2018-08-09T16:58:55.166Z,1604.00
2018-08-09T16:59:55.382Z,1632.00
2018-08-09T17:00:55.283Z,1268.00
2018-08-09T17:01:55.140Z,1668.00
2018-08-09T17:02:55.124Z,1632.00
2018-08-09T17:03:55.313Z,1620.00
2018-08-09T17:21:30.768Z,1252.00
2018-08-09T17:22:31.260Z,1232.00
2018-08-09T17:23:33.261Z,1260.00
2018-08-09T17:24:30.667Z,1260.00
2018-08-09T17:25:30.708Z,1280.00
2018-08-09T17:26:30.648Z,1304.00
2018-08-09T17:27:30.638Z,1464.00
2018-08-09T17:28:30.635Z,1296.00
2018-08-09T17:29:30.650Z,1152.00
2018-08-09T17:30:30.638Z,1140.00
2018-08-09T17:31:30.608Z,1144.00
2018-08-09T17:32:30.673Z,1132.00
2018-08-09T17:33:30.596Z,1192.00
2018-08-09T17:34:30.579Z,1164.00
2018-08-09T17:35:30.584Z,1024.00
2018-08-09T17:36:30.573Z,948.00
2018-08-09T17:37:30.566Z,900.00
2018-08-09T17:38:30.617Z,884.00
2018-08-09T17:39:30.562Z,868.00
2018-08-09T17:40:30.541Z,856.00
2018-08-09T17:41:30.547Z,840.00
2018-08-09T17:42:30.536Z,828.00
2018-08-09T17:43:30.574Z,820.00
2018-08-09T17:44:30.519Z,800.00
2018-08-09T17:45:30.550Z,792.00
2018-08-09T17:46:30.513Z,796.00
2018-08-09T17:47:30.489Z,788.00
2018-08-09T17:48:30.531Z,792.00
2018-08-09T17:49:30.483Z,796.00
2018-08-09T17:50:30.481Z,800.00
2018-08-09T17:51:30.510Z,796.00
2018-08-09T17:52:30.471Z,804.00
2018-08-09T17:53:30.459Z,816.00
2018-08-09T17:54:30.465Z,816.00
2018-08-09T17:55:30.447Z,812.00
2018-08-09T17:56:30.450Z,804.00
2018-08-09T17:57:30.432Z,788.00
2018-08-09T17:58:30.470Z,752.00
2018-08-09T17:59:30.449Z,720.00
2018-08-09T18:00:30.415Z,700.00
2018-08-09T18:01:30.423Z,668.00
2018-08-09T18:02:30.394Z,640.00
2018-08-09T18:03:30.421Z,624.00
2018-08-09T18:04:30.406Z,604.00
2018-08-09T18:05:30.386Z,584.00
2018-08-09T18:06:30.370Z,572.00
2018-08-09T18:07:30.365Z,564.00
2018-08-09T18:08:30.396Z,568.00
2018-08-09T18:09:30.355Z,580.00
2018-08-09T18:10:30.343Z,584.00
2018-08-09T18:11:30.342Z,544.00
2018-08-09T18:12:30.320Z,520.00
2018-08-09T18:13:30.350Z,500.00
2018-08-09T18:14:30.312Z,504.00
2018-08-09T18:15:30.309Z,508.00
2018-08-09T18:16:30.308Z,516.00
2018-08-09T18:17:30.293Z,504.00
2018-08-09T18:18:30.295Z,528.00
2018-08-09T18:19:30.277Z,608.00
2018-08-09T18:20:30.277Z,656.00
2018-08-09T18:21:30.316Z,572.00
2018-08-09T18:22:30.275Z,544.00
2018-08-09T18:23:30.245Z,476.00
2018-08-09T18:24:30.250Z,480.00
2018-08-09T18:25:30.241Z,492.00
2018-08-09T18:26:30.270Z,496.00
2018-08-09T18:27:30.266Z,488.00
2018-08-09T18:28:30.214Z,480.00
2018-08-09T18:29:30.213Z,476.00
2018-08-09T18:30:30.206Z,472.00
2018-08-09T18:31:30.200Z,452.00
2018-08-09T18:32:30.288Z,444.00
2018-08-09T18:33:30.189Z,424.00
2018-08-09T18:34:30.180Z,404.00
2018-08-09T18:35:30.182Z,392.00
2018-08-09T18:36:30.158Z,376.00
2018-08-09T18:37:30.314Z,356.00
2018-08-09T18:38:30.162Z,332.00
2018-08-09T18:39:30.148Z,316.00
2018-08-09T18:40:30.137Z,308.00
2018-08-09T18:41:30.122Z,296.00
2018-08-09T18:42:30.158Z,288.00
2018-08-09T18:43:30.112Z,276.00
2018-08-09T18:44:30.105Z,268.00
2018-08-09T18:45:30.101Z,256.00
2018-08-09T18:46:30.092Z,244.00
2018-08-09T18:47:30.096Z,228.00
2018-08-09T18:48:30.122Z,212.00
2018-08-09T18:49:30.073Z,188.00
2018-08-09T18:50:30.073Z,168.00
2018-08-09T18:51:30.045Z,156.00
2018-08-09T18:52:30.052Z,140.00
2018-08-09T18:53:30.113Z,128.00
2018-08-09T18:54:30.042Z,120.00
2018-08-09T18:55:30.017Z,112.00
2018-08-09T18:56:30.015Z,100.00
2018-08-09T18:57:30.016Z,92.00
2018-08-09T18:58:30.007Z,84.00
2018-08-09T18:59:30.032Z,76.00
2018-08-09T19:00:30.025Z,64.00
2018-08-09T19:01:30.380Z,60.00
2018-08-09T19:02:29.971Z,56.00
2018-08-09T19:03:29.971Z,52.00
2018-08-09T19:04:29.965Z,48.00
2018-08-09T19:05:30.340Z,40.00
2018-08-09T19:06:29.942Z,36.00
2018-08-09T19:07:29.942Z,32.00
2018-08-09T19:08:29.929Z,32.00
2018-08-09T19:09:29.930Z,28.00
2018-08-09T19:10:29.910Z,24.00
2018-08-09T19:11:29.913Z,24.00
2018-08-09T19:12:29.900Z,20.00
2018-08-09T19:13:29.894Z,20.00
2018-08-09T19:14:29.949Z,16.00
2018-08-09T19:15:29.948Z,16.00
2018-08-09T19:16:29.883Z,12.00
2018-08-09T19:17:29.869Z,12.00
2018-08-09T19:18:29.877Z,12.00
2018-08-09T19:19:30.092Z,12.00
2018-08-09T19:20:29.857Z,8.00
2018-08-09T19:21:29.877Z,8.00
2018-08-09T19:22:29.849Z,8.00
2018-08-09T19:23:29.838Z,4.00
2018-08-09T19:24:29.804Z,4.00
2018-08-09T19:25:29.823Z,4.00
2018-08-09T19:26:29.839Z,4.00
2018-08-09T19:27:30.869Z,0.00
2018-08-09T19:28:29.858Z,4.00
2018-08-09T19:29:29.981Z,0.00
2018-08-09T19:30:31.321Z,4.00
2018-08-09T19:31:30.133Z,4.00
2018-08-09T19:32:30.306Z,0.00
2018-08-09T19:33:30.311Z,0.00
2018-08-09T19:34:29.750Z,0.00
2018-08-09T19:35:29.733Z,0.00
2018-08-09T19:36:29.727Z,0.00
2018-08-09T19:37:29.794Z,0.00
2018-08-09T19:38:29.707Z,0.00
2018-08-09T19:39:29.737Z,0.00
2018-08-09T19:40:29.701Z,0.00
2018-08-09T19:41:29.701Z,0.00
2018-08-09T19:42:29.695Z,0.00
2018-08-09T19:43:29.695Z,0.00
2018-08-09T19:44:30.321Z,0.00
2018-08-09T19:45:29.667Z,0.00
2018-08-09T19:46:29.659Z,0.00
2018-08-09T19:47:29.651Z,0.00
2018-08-09T19:48:30.432Z,0.00
2018-08-09T19:49:29.647Z,0.00
2018-08-09T19:50:29.835Z,0.00
2018-08-09T19:51:29.624Z,0.00
2018-08-09T19:52:29.727Z,0.00
2018-08-09T19:53:29.651Z,0.00
2018-08-09T19:54:29.842Z,0.00
2018-08-09T19:55:29.602Z,0.00
2018-08-09T19:56:29.588Z,0.00
2018-08-09T19:57:29.573Z,0.00
2018-08-09T19:58:29.565Z,0.00
2018-08-09T19:59:31.323Z,0.00
2018-08-09T20:00:31.323Z,0.00
2018-08-09T20:01:29.538Z,0.00
2018-08-09T20:02:29.600Z,0.00
2018-08-09T20:03:29.529Z,0.00
2018-08-09T20:04:29.869Z,0.00
2018-08-09T20:05:30.324Z,0.00
2018-08-09T20:06:30.389Z,0.00
2018-08-09T20:07:29.510Z,0.00
2018-08-09T20:08:29.494Z,0.00
2018-08-09T20:09:29.515Z,0.00
2018-08-09T20:10:29.863Z,0.00
2018-08-09T20:11:29.475Z,0.00
2018-08-09T20:12:29.464Z,0.00
2018-08-09T20:13:29.466Z,0.00
2018-08-09T20:14:29.441Z,0.00
2018-08-09T20:15:29.435Z,0.00
2018-08-09T20:16:29.509Z,0.00
2018-08-09T20:17:30.067Z,0.00
2018-08-09T20:18:31.321Z,0.00
2018-08-09T20:19:29.407Z,0.00
2018-08-09T20:20:29.438Z,0.00
2018-08-09T20:21:29.402Z,0.00
2018-08-09T20:22:29.791Z,0.00
2018-08-09T20:23:29.374Z,0.00
2018-08-09T20:24:29.371Z,0.00
2018-08-09T20:25:29.379Z,0.00
2018-08-09T20:26:29.346Z,0.00
2018-08-09T20:27:29.347Z,0.00
2018-08-09T20:28:29.353Z,0.00
2018-08-09T20:29:29.324Z,0.00
2018-08-09T20:30:29.327Z,0.00
2018-08-09T20:31:29.838Z,0.00
2018-08-09T20:32:29.316Z,0.00
2018-08-09T20:33:29.333Z,0.00
2018-08-09T20:34:29.287Z,0.00
2018-08-09T20:35:29.348Z,0.00
2018-08-09T20:36:29.288Z,0.00
2018-08-09T20:37:29.252Z,0.00
2018-08-09T20:38:29.253Z,0.00
2018-08-09T20:39:30.844Z,0.00
2018-08-09T20:40:29.836Z,0.00
2018-08-09T20:41:29.225Z,0.00
2018-08-09T20:42:29.231Z,0.00
2018-08-09T20:43:29.231Z,0.00
2018-08-09T20:44:29.236Z,0.00
2018-08-09T20:45:29.231Z,0.00
2018-08-09T20:46:29.345Z,0.00
2018-08-09T20:47:29.190Z,0.00
2018-08-09T20:48:29.317Z,0.00